TKJ2DK LTBJ-LTFJ
Flight info
| Callsign | TKJ2DK |
|---|---|
| Flight time | 0h 42m |
| Altitude | 26000 |
| Route | BERGO G80 DUGLA Y371 VUTZO |
| Aircraft | B38M/M-SDE1FGHILORVWXY/HB1 |
Departure
| Time | 2026-05-03 21:20 |
|---|---|
| Airport | Adnan Menderes International Airport (LTBJ) |
Arrival
| Time | 2026-05-03 22:02 |
|---|---|
| Airport | Istanbul Sabiha Gökçen International Airport (LTFJ) |
| Time | Latitude | Longitude | Altitude | Speed | Heading |
|---|---|---|---|---|---|
| 2026-05-03 21:02 | 38.29342 | 27.15011 | 421 ft | 0 kts | 257° |
| 2026-05-03 21:10 | 38.29344 | 27.15021 | 421 ft | 2 kts | 254° |
| 2026-05-03 21:10 | 38.29348 | 27.15041 | 422 ft | 2 kts | 252° |
| 2026-05-03 21:10 | 38.29354 | 27.15060 | 422 ft | 2 kts | 248° |
| 2026-05-03 21:11 | 38.29360 | 27.15079 | 422 ft | 2 kts | 241° |
| 2026-05-03 21:11 | 38.29369 | 27.15097 | 416 ft | 2 kts | 227° |
| 2026-05-03 21:11 | 38.29382 | 27.15109 | 417 ft | 2 kts | 200° |
| 2026-05-03 21:11 | 38.29398 | 27.15112 | 413 ft | 2 kts | 172° |
| 2026-05-03 21:12 | 38.29404 | 27.15111 | 415 ft | 0 kts | 167° |
| 2026-05-03 21:15 | 38.29401 | 27.15111 | 414 ft | 2 kts | 167° |
| 2026-05-03 21:16 | 38.29373 | 27.15120 | 419 ft | 6 kts | 167° |
| 2026-05-03 21:16 | 38.29321 | 27.15135 | 420 ft | 8 kts | 172° |
| 2026-05-03 21:16 | 38.29258 | 27.15154 | 416 ft | 11 kts | 165° |
| 2026-05-03 21:16 | 38.29177 | 27.15179 | 418 ft | 13 kts | 165° |
| 2026-05-03 21:17 | 38.29081 | 27.15208 | 416 ft | 16 kts | 166° |
| 2026-05-03 21:17 | 38.29022 | 27.15235 | 419 ft | 11 kts | 132° |
| 2026-05-03 21:17 | 38.28932 | 27.15319 | 419 ft | 15 kts | 167° |
| 2026-05-03 21:17 | 38.28821 | 27.15352 | 416 ft | 18 kts | 167° |
| 2026-05-03 21:18 | 38.28689 | 27.15390 | 415 ft | 21 kts | 164° |
| 2026-05-03 21:18 | 38.28560 | 27.15436 | 417 ft | 11 kts | 138° |
| 2026-05-03 21:18 | 38.28567 | 27.15538 | 421 ft | 13 kts | 76° |
| 2026-05-03 21:18 | 38.28594 | 27.15653 | 419 ft | 12 kts | 58° |
| 2026-05-03 21:19 | 38.28640 | 27.15662 | 417 ft | 0 kts | 347° |
| 2026-05-03 21:19 | 38.28668 | 27.15654 | 416 ft | 22 kts | 347° |
| 2026-05-03 21:19 | 38.29067 | 27.15534 | 420 ft | 93 kts | 347° |
| 2026-05-03 21:19 | 38.29884 | 27.15297 | 547 ft | 136 kts | 346° |
| 2026-05-03 21:20 | 38.30855 | 27.15033 | 1172 ft | 147 kts | 349° |
| 2026-05-03 21:20 | 38.31894 | 27.14721 | 1872 ft | 158 kts | 348° |
| 2026-05-03 21:20 | 38.32997 | 27.14407 | 2526 ft | 176 kts | 351° |
| 2026-05-03 21:20 | 38.34286 | 27.14048 | 2911 ft | 207 kts | 351° |
| 2026-05-03 21:21 | 38.35763 | 27.13649 | 3617 ft | 218 kts | 352° |
| 2026-05-03 21:21 | 38.37238 | 27.13247 | 4703 ft | 224 kts | 352° |
| 2026-05-03 21:21 | 38.38770 | 27.12811 | 5623 ft | 230 kts | 352° |
| 2026-05-03 21:21 | 38.40346 | 27.12353 | 6578 ft | 234 kts | 351° |
| 2026-05-03 21:22 | 38.41953 | 27.11871 | 7490 ft | 239 kts | 350° |
| 2026-05-03 21:22 | 38.43580 | 27.11371 | 8449 ft | 242 kts | 349° |
| 2026-05-03 21:22 | 38.45257 | 27.10859 | 9282 ft | 250 kts | 349° |
| 2026-05-03 21:22 | 38.46956 | 27.10343 | 10211 ft | 253 kts | 349° |
| 2026-05-03 21:23 | 38.48733 | 27.09807 | 10731 ft | 271 kts | 349° |
| 2026-05-03 21:23 | 38.50646 | 27.09230 | 11095 ft | 292 kts | 349° |
| 2026-05-03 21:23 | 38.52678 | 27.08616 | 11596 ft | 308 kts | 349° |
| 2026-05-03 21:23 | 38.54782 | 27.07979 | 12271 ft | 317 kts | 349° |
| 2026-05-03 21:24 | 38.56933 | 27.07328 | 13192 ft | 319 kts | 348° |
| 2026-05-03 21:24 | 38.59114 | 27.06667 | 14034 ft | 324 kts | 348° |
| 2026-05-03 21:24 | 38.61353 | 27.06257 | 14777 ft | 327 kts | 3° |
| 2026-05-03 21:24 | 38.63625 | 27.06627 | 15554 ft | 333 kts | 8° |
| 2026-05-03 21:25 | 38.65952 | 27.07024 | 16302 ft | 339 kts | 8° |
| 2026-05-03 21:25 | 38.68319 | 27.07444 | 17061 ft | 345 kts | 8° |
| 2026-05-03 21:25 | 38.69893 | 27.07729 | 17557 ft | 349 kts | 8° |
| 2026-05-03 21:25 | 38.73175 | 27.08330 | 18463 ft | 357 kts | 9° |
| 2026-05-03 21:26 | 38.75641 | 27.08785 | 19182 ft | 360 kts | 9° |
| 2026-05-03 21:26 | 38.77426 | 27.09114 | 19672 ft | 363 kts | 9° |
| 2026-05-03 21:26 | 38.79953 | 27.09581 | 20279 ft | 368 kts | 9° |
| 2026-05-03 21:26 | 38.82513 | 27.10055 | 20937 ft | 371 kts | 9° |
| 2026-05-03 21:27 | 38.85082 | 27.10531 | 21611 ft | 375 kts | 9° |
| 2026-05-03 21:27 | 38.87684 | 27.11012 | 22216 ft | 380 kts | 10° |
| 2026-05-03 21:27 | 38.90317 | 27.11501 | 22799 ft | 384 kts | 10° |
| 2026-05-03 21:27 | 38.92986 | 27.11996 | 23422 ft | 389 kts | 10° |
| 2026-05-03 21:28 | 38.95677 | 27.12495 | 23926 ft | 393 kts | 10° |
| 2026-05-03 21:28 | 38.98394 | 27.13000 | 24440 ft | 396 kts | 10° |
| 2026-05-03 21:28 | 39.01104 | 27.13495 | 24943 ft | 400 kts | 10° |
| 2026-05-03 21:28 | 39.04003 | 27.14023 | 25458 ft | 404 kts | 9° |
| 2026-05-03 21:29 | 39.06806 | 27.14534 | 25874 ft | 409 kts | 9° |
| 2026-05-03 21:29 | 39.09657 | 27.15055 | 25975 ft | 418 kts | 10° |
| 2026-05-03 21:29 | 39.12577 | 27.15589 | 25969 ft | 428 kts | 11° |
| 2026-05-03 21:29 | 39.15554 | 27.16132 | 25980 ft | 434 kts | 10° |
| 2026-05-03 21:30 | 39.18544 | 27.16679 | 25988 ft | 432 kts | 10° |
| 2026-05-03 21:30 | 39.21534 | 27.17227 | 25986 ft | 434 kts | 9° |
| 2026-05-03 21:30 | 39.24531 | 27.17776 | 26002 ft | 435 kts | 10° |
| 2026-05-03 21:30 | 39.27480 | 27.18318 | 26008 ft | 433 kts | 10° |
| 2026-05-03 21:31 | 39.30454 | 27.18864 | 25992 ft | 433 kts | 9° |
| 2026-05-03 21:31 | 39.33472 | 27.19418 | 26008 ft | 434 kts | 11° |
| 2026-05-03 21:31 | 39.36476 | 27.19970 | 26013 ft | 432 kts | 11° |
| 2026-05-03 21:31 | 39.39455 | 27.20520 | 26018 ft | 433 kts | 10° |
| 2026-05-03 21:32 | 39.42451 | 27.21071 | 26016 ft | 435 kts | 11° |
| 2026-05-03 21:32 | 39.45442 | 27.21623 | 26027 ft | 432 kts | 11° |
| 2026-05-03 21:32 | 39.48410 | 27.22172 | 26019 ft | 433 kts | 11° |
| 2026-05-03 21:32 | 39.51349 | 27.23027 | 26037 ft | 431 kts | 20° |
| 2026-05-03 21:33 | 39.54184 | 27.24192 | 26008 ft | 428 kts | 20° |
| 2026-05-03 21:33 | 39.57038 | 27.25349 | 26007 ft | 430 kts | 20° |
| 2026-05-03 21:33 | 39.59984 | 27.26546 | 26020 ft | 430 kts | 19° |
| 2026-05-03 21:33 | 39.62825 | 27.27704 | 26018 ft | 429 kts | 20° |
| 2026-05-03 21:34 | 39.65684 | 27.28869 | 26020 ft | 432 kts | 20° |
| 2026-05-03 21:34 | 39.68561 | 27.30042 | 26006 ft | 433 kts | 19° |
| 2026-05-03 21:34 | 39.71444 | 27.31220 | 26004 ft | 437 kts | 19° |
| 2026-05-03 21:34 | 39.74342 | 27.32406 | 26024 ft | 437 kts | 19° |
| 2026-05-03 21:35 | 39.77230 | 27.33591 | 26032 ft | 436 kts | 19° |
| 2026-05-03 21:35 | 39.80128 | 27.34781 | 26030 ft | 437 kts | 20° |
| 2026-05-03 21:35 | 39.83029 | 27.35973 | 26025 ft | 437 kts | 20° |
| 2026-05-03 21:35 | 39.85963 | 27.37181 | 26024 ft | 437 kts | 19° |
| 2026-05-03 21:36 | 39.88874 | 27.38378 | 26025 ft | 440 kts | 19° |
| 2026-05-03 21:36 | 39.91792 | 27.39580 | 26034 ft | 439 kts | 19° |
| 2026-05-03 21:36 | 39.94701 | 27.40777 | 26024 ft | 439 kts | 19° |
| 2026-05-03 21:36 | 39.97488 | 27.41923 | 26038 ft | 440 kts | 19° |
| 2026-05-03 21:37 | 40.00532 | 27.43179 | 26034 ft | 439 kts | 19° |
| 2026-05-03 21:37 | 40.03473 | 27.44391 | 26020 ft | 440 kts | 19° |
| 2026-05-03 21:37 | 40.06390 | 27.45595 | 26031 ft | 441 kts | 20° |
| 2026-05-03 21:37 | 40.09321 | 27.46808 | 26038 ft | 441 kts | 19° |
| 2026-05-03 21:38 | 40.12238 | 27.48013 | 26034 ft | 441 kts | 19° |
| 2026-05-03 21:38 | 40.15124 | 27.49208 | 26013 ft | 440 kts | 20° |
| 2026-05-03 21:38 | 40.18051 | 27.50421 | 26030 ft | 440 kts | 19° |
| 2026-05-03 21:38 | 40.20952 | 27.51624 | 25944 ft | 432 kts | 20° |
| 2026-05-03 21:39 | 40.23769 | 27.52795 | 25787 ft | 416 kts | 20° |
| 2026-05-03 21:39 | 40.26459 | 27.53915 | 25652 ft | 401 kts | 20° |
| 2026-05-03 21:39 | 40.29084 | 27.55026 | 25414 ft | 390 kts | 23° |
| 2026-05-03 21:39 | 40.31436 | 27.56710 | 24831 ft | 385 kts | 39° |
| 2026-05-03 21:40 | 40.33582 | 27.58791 | 24327 ft | 382 kts | 38° |
| 2026-05-03 21:40 | 40.35749 | 27.60864 | 23825 ft | 380 kts | 38° |
| 2026-05-03 21:40 | 40.37872 | 27.62916 | 23274 ft | 378 kts | 38° |
| 2026-05-03 21:40 | 40.39981 | 27.64970 | 22732 ft | 374 kts | 38° |
| 2026-05-03 21:41 | 40.42055 | 27.66996 | 22306 ft | 369 kts | 38° |
| 2026-05-03 21:41 | 40.44091 | 27.68989 | 21905 ft | 363 kts | 38° |
| 2026-05-03 21:41 | 40.46136 | 27.70864 | 21428 ft | 361 kts | 30° |
| 2026-05-03 21:41 | 40.48466 | 27.72120 | 20938 ft | 359 kts | 23° |
| 2026-05-03 21:42 | 40.50774 | 27.73309 | 20566 ft | 354 kts | 24° |
| 2026-05-03 21:42 | 40.53062 | 27.74474 | 20152 ft | 350 kts | 23° |
| 2026-05-03 21:42 | 40.55330 | 27.75622 | 19739 ft | 347 kts | 23° |
| 2026-05-03 21:42 | 40.57546 | 27.76740 | 19596 ft | 336 kts | 23° |
| 2026-05-03 21:43 | 40.59703 | 27.77827 | 19423 ft | 327 kts | 23° |
| 2026-05-03 21:43 | 40.61795 | 27.78882 | 19255 ft | 317 kts | 23° |
| 2026-05-03 21:43 | 40.63824 | 27.79906 | 19104 ft | 308 kts | 23° |
| 2026-05-03 21:43 | 40.65138 | 27.80708 | 18838 ft | 305 kts | 34° |
| 2026-05-03 21:44 | 40.66664 | 27.82633 | 18544 ft | 300 kts | 55° |
| 2026-05-03 21:44 | 40.67514 | 27.85112 | 18264 ft | 298 kts | 74° |
| 2026-05-03 21:44 | 40.67758 | 27.87845 | 17930 ft | 299 kts | 84° |
| 2026-05-03 21:44 | 40.67845 | 27.90597 | 17587 ft | 301 kts | 85° |
| 2026-05-03 21:45 | 40.67894 | 27.93354 | 17254 ft | 301 kts | 85° |
| 2026-05-03 21:45 | 40.67920 | 27.96080 | 16935 ft | 300 kts | 86° |
| 2026-05-03 21:45 | 40.67934 | 27.98853 | 16556 ft | 298 kts | 86° |
| 2026-05-03 21:45 | 40.67939 | 28.01569 | 16257 ft | 296 kts | 86° |
| 2026-05-03 21:46 | 40.67939 | 28.04299 | 15940 ft | 297 kts | 86° |
| 2026-05-03 21:46 | 40.67936 | 28.07058 | 15652 ft | 296 kts | 86° |
| 2026-05-03 21:46 | 40.67931 | 28.09778 | 15325 ft | 294 kts | 86° |
| 2026-05-03 21:46 | 40.67924 | 28.12457 | 15013 ft | 291 kts | 86° |
| 2026-05-03 21:47 | 40.67918 | 28.15112 | 14709 ft | 290 kts | 86° |
| 2026-05-03 21:47 | 40.67910 | 28.17770 | 14405 ft | 290 kts | 86° |
| 2026-05-03 21:47 | 40.67902 | 28.20407 | 14091 ft | 288 kts | 86° |
| 2026-05-03 21:47 | 40.67893 | 28.23040 | 13780 ft | 286 kts | 86° |
| 2026-05-03 21:48 | 40.67883 | 28.25658 | 13442 ft | 284 kts | 86° |
| 2026-05-03 21:48 | 40.67873 | 28.28249 | 13124 ft | 282 kts | 86° |
| 2026-05-03 21:48 | 40.67863 | 28.30847 | 12823 ft | 283 kts | 86° |
| 2026-05-03 21:48 | 40.67819 | 28.33451 | 12501 ft | 284 kts | 88° |
| 2026-05-03 21:49 | 40.67764 | 28.36049 | 12182 ft | 283 kts | 87° |
| 2026-05-03 21:49 | 40.67710 | 28.38642 | 11914 ft | 282 kts | 86° |
| 2026-05-03 21:49 | 40.67657 | 28.41212 | 11614 ft | 281 kts | 87° |
| 2026-05-03 21:49 | 40.67604 | 28.43774 | 11313 ft | 278 kts | 86° |
| 2026-05-03 21:50 | 40.67552 | 28.46292 | 11040 ft | 274 kts | 87° |
| 2026-05-03 21:50 | 40.67498 | 28.48793 | 10742 ft | 272 kts | 87° |
| 2026-05-03 21:50 | 40.67443 | 28.51271 | 10431 ft | 270 kts | 86° |
| 2026-05-03 21:50 | 40.67388 | 28.53718 | 10159 ft | 266 kts | 86° |
| 2026-05-03 21:51 | 40.67333 | 28.56149 | 9883 ft | 263 kts | 86° |
| 2026-05-03 21:51 | 40.67278 | 28.58553 | 9567 ft | 260 kts | 86° |
| 2026-05-03 21:51 | 40.67224 | 28.60922 | 9286 ft | 257 kts | 86° |
| 2026-05-03 21:51 | 40.67175 | 28.63294 | 9052 ft | 251 kts | 84° |
| 2026-05-03 21:52 | 40.67518 | 28.65474 | 8776 ft | 240 kts | 66° |
| 2026-05-03 21:52 | 40.68059 | 28.67537 | 8535 ft | 237 kts | 67° |
| 2026-05-03 21:52 | 40.68592 | 28.69579 | 8252 ft | 234 kts | 67° |
| 2026-05-03 21:52 | 40.69118 | 28.71582 | 8041 ft | 229 kts | 67° |
| 2026-05-03 21:53 | 40.69647 | 28.73582 | 7798 ft | 230 kts | 67° |
| 2026-05-03 21:53 | 40.70176 | 28.75581 | 7539 ft | 231 kts | 67° |
| 2026-05-03 21:53 | 40.70704 | 28.77571 | 7291 ft | 230 kts | 66° |
| 2026-05-03 21:53 | 40.71238 | 28.79584 | 7029 ft | 228 kts | 66° |
| 2026-05-03 21:54 | 40.71757 | 28.81542 | 6794 ft | 227 kts | 67° |
| 2026-05-03 21:54 | 40.72277 | 28.83505 | 6547 ft | 226 kts | 67° |
| 2026-05-03 21:54 | 40.72792 | 28.85449 | 6303 ft | 225 kts | 67° |
| 2026-05-03 21:54 | 40.73309 | 28.87397 | 6059 ft | 224 kts | 66° |
| 2026-05-03 21:55 | 40.73820 | 28.89331 | 5805 ft | 223 kts | 66° |
| 2026-05-03 21:55 | 40.74331 | 28.91265 | 5553 ft | 222 kts | 66° |
| 2026-05-03 21:55 | 40.74837 | 28.93182 | 5319 ft | 222 kts | 66° |
| 2026-05-03 21:55 | 40.75342 | 28.95094 | 5092 ft | 219 kts | 66° |
| 2026-05-03 21:56 | 40.75850 | 28.97019 | 4863 ft | 214 kts | 65° |
| 2026-05-03 21:56 | 40.76332 | 28.98849 | 4624 ft | 208 kts | 65° |
| 2026-05-03 21:56 | 40.76799 | 29.00622 | 4385 ft | 202 kts | 65° |
| 2026-05-03 21:56 | 40.77482 | 29.02179 | 4135 ft | 192 kts | 49° |
| 2026-05-03 21:57 | 40.78276 | 29.03546 | 4083 ft | 188 kts | 49° |
| 2026-05-03 21:57 | 40.79077 | 29.04917 | 4053 ft | 188 kts | 49° |
| 2026-05-03 21:57 | 40.79875 | 29.06276 | 4008 ft | 187 kts | 48° |
| 2026-05-03 21:57 | 40.80652 | 29.07599 | 3986 ft | 176 kts | 48° |
| 2026-05-03 21:58 | 40.81397 | 29.08860 | 3998 ft | 173 kts | 48° |
| 2026-05-03 21:58 | 40.82128 | 29.10115 | 3990 ft | 172 kts | 50° |
| 2026-05-03 21:58 | 40.82710 | 29.11506 | 3877 ft | 173 kts | 58° |
| 2026-05-03 21:58 | 40.83238 | 29.12934 | 3896 ft | 173 kts | 58° |
| 2026-05-03 21:59 | 40.83750 | 29.14368 | 3758 ft | 173 kts | 61° |
| 2026-05-03 21:59 | 40.84092 | 29.15876 | 3398 ft | 167 kts | 69° |
| 2026-05-03 21:59 | 40.84466 | 29.17270 | 3215 ft | 156 kts | 57° |
| 2026-05-03 21:59 | 40.84958 | 29.18561 | 2770 ft | 157 kts | 55° |
| 2026-05-03 22:00 | 40.85481 | 29.19803 | 2441 ft | 151 kts | 53° |
| 2026-05-03 22:00 | 40.85967 | 29.20959 | 2122 ft | 137 kts | 50° |
| 2026-05-03 22:00 | 40.86440 | 29.22015 | 1781 ft | 128 kts | 51° |
| 2026-05-03 22:00 | 40.86848 | 29.23032 | 1523 ft | 123 kts | 53° |
| 2026-05-03 22:01 | 40.87174 | 29.23883 | 1376 ft | 123 kts | 52° |
| 2026-05-03 22:01 | 40.87597 | 29.24933 | 1159 ft | 124 kts | 54° |
| 2026-05-03 22:01 | 40.87950 | 29.25832 | 1020 ft | 126 kts | 57° |
| 2026-05-03 22:01 | 40.88384 | 29.26958 | 813 ft | 128 kts | 59° |
| 2026-05-03 22:02 | 40.88769 | 29.28001 | 602 ft | 125 kts | 60° |
| 2026-05-03 22:02 | 40.89150 | 29.29035 | 393 ft | 128 kts | 64° |
| 2026-05-03 22:02 | 40.89538 | 29.30061 | 324 ft | 104 kts | 62° |
| 2026-05-03 22:02 | 40.89751 | 29.30630 | 325 ft | 38 kts | 63° |
| 2026-05-03 22:03 | 40.89862 | 29.30934 | 322 ft | 38 kts | 64° |
| 2026-05-03 22:03 | 40.89987 | 29.31204 | 319 ft | 26 kts | 47° |
| 2026-05-03 22:03 | 40.90090 | 29.31312 | 323 ft | 20 kts | 33° |
| 2026-05-03 22:03 | 40.90218 | 29.31426 | 323 ft | 24 kts | 34° |
| 2026-05-03 22:04 | 40.90319 | 29.31506 | 321 ft | 11 kts | 342° |
| 2026-05-03 22:04 | 40.90399 | 29.31449 | 322 ft | 15 kts | 333° |
| 2026-05-03 22:04 | 40.90463 | 29.31474 | 322 ft | 8 kts | 83° |